createdAt,value
2022-11-30T00:00:03.760Z,100484.37
2022-11-30T00:03:14.925Z,100476.63
2022-11-30T00:06:24.924Z,100472.66
2022-11-30T00:09:27.919Z,100469.22
2022-11-30T00:12:31.550Z,100476.38
2022-11-30T00:15:34.662Z,100479.75
2022-11-30T00:18:38.348Z,100480.44
2022-11-30T00:21:41.371Z,100481.56
2022-11-30T00:24:44.944Z,100493.56
2022-11-30T00:27:48.278Z,100485.53
2022-11-30T00:31:01.618Z,100480.19
2022-11-30T00:34:05.984Z,100479.88
2022-11-30T00:37:09.117Z,100482.34
2022-11-30T00:40:13.116Z,100487.59
2022-11-30T00:43:16.529Z,100492.72
2022-11-30T00:46:20.383Z,100493.06
2022-11-30T00:49:25.158Z,100486.91
2022-11-30T00:52:30.532Z,100496.41
2022-11-30T00:55:34.332Z,100478.25
2022-11-30T00:58:37.844Z,100478.09
2022-11-30T01:01:43.583Z,100484.13
2022-11-30T01:04:46.967Z,100487.50
2022-11-30T01:07:50.987Z,100485.38
2022-11-30T01:10:57.888Z,100477.59
2022-11-30T01:14:02.491Z,100489.09
2022-11-30T01:17:05.769Z,100474.84
2022-11-30T01:20:09.238Z,100474.47
2022-11-30T01:23:12.154Z,100467.94
2022-11-30T01:26:16.035Z,100477.28
2022-11-30T01:29:19.088Z,100471.56
2022-11-30T01:32:22.378Z,100464.37
2022-11-30T01:35:25.417Z,100476.50
2022-11-30T01:38:33.236Z,100484.59
2022-11-30T01:41:38.519Z,100492.03
2022-11-30T01:44:59.295Z,100497.94
2022-11-30T01:48:02.429Z,100495.44
2022-11-30T01:51:06.232Z,100493.75
2022-11-30T01:54:11.890Z,100492.19
2022-11-30T01:57:21.328Z,100480.87
2022-11-30T02:00:25.013Z,100489.75
2022-11-30T02:03:56.487Z,100486.78
2022-11-30T02:07:00.426Z,100476.84
2022-11-30T02:10:03.453Z,100480.25
2022-11-30T02:13:24.012Z,100474.84
2022-11-30T02:16:35.802Z,100469.38
2022-11-30T02:19:57.583Z,100469.59
2022-11-30T02:23:19.348Z,100464.22
2022-11-30T02:26:40.941Z,100455.25
2022-11-30T02:29:48.044Z,100436.38
2022-11-30T02:32:58.064Z,100440.97
2022-11-30T02:36:01.471Z,100432.78
2022-11-30T02:39:05.442Z,100450.59
2022-11-30T02:42:15.037Z,100450.78
2022-11-30T02:45:25.543Z,100455.16
2022-11-30T02:48:36.147Z,100452.53
2022-11-30T02:51:40.461Z,100463.59
2022-11-30T02:54:43.755Z,100462.47
2022-11-30T02:57:47.130Z,100459.66
2022-11-30T03:00:50.855Z,100457.28
2022-11-30T03:03:54.364Z,100458.75
2022-11-30T03:06:57.565Z,100462.88
2022-11-30T03:10:01.290Z,100464.47
2022-11-30T03:13:04.658Z,100462.94
2022-11-30T03:16:10.086Z,100456.34
2022-11-30T03:19:14.442Z,100457.28
2022-11-30T03:22:17.630Z,100452.78
2022-11-30T03:25:20.763Z,100457.87
2022-11-30T03:28:24.484Z,100457.22
2022-11-30T03:31:28.941Z,100465.59
2022-11-30T03:34:33.842Z,100469.72
2022-11-30T03:37:37.679Z,100467.41
2022-11-30T03:40:41.786Z,100467.31
2022-11-30T03:43:46.026Z,100457.37
2022-11-30T03:46:49.571Z,100470.00
2022-11-30T03:49:52.575Z,100469.56
2022-11-30T03:52:55.822Z,100460.84
2022-11-30T03:56:00.901Z,100456.63
2022-11-30T03:59:04.294Z,100463.06
2022-11-30T04:02:07.672Z,100453.94
2022-11-30T04:05:10.867Z,100452.53
2022-11-30T04:08:14.325Z,100458.03
2022-11-30T04:11:17.913Z,100457.06
2022-11-30T04:14:20.811Z,100455.16
2022-11-30T04:17:24.105Z,100462.12
2022-11-30T04:20:27.871Z,100463.22
2022-11-30T04:23:33.833Z,100468.34
2022-11-30T04:26:36.745Z,100464.84
2022-11-30T04:29:40.507Z,100468.47
2022-11-30T04:32:43.603Z,100473.12
2022-11-30T04:35:49.867Z,100476.03
2022-11-30T04:38:52.744Z,100470.34
2022-11-30T04:41:55.872Z,100467.09
2022-11-30T04:44:59.383Z,100474.44
2022-11-30T04:48:03.588Z,100469.56
2022-11-30T04:51:08.462Z,100476.53
2022-11-30T04:54:11.723Z,100471.50
2022-11-30T04:57:14.757Z,100467.06
2022-11-30T05:00:19.231Z,100458.88
2022-11-30T05:03:22.182Z,100451.94
2022-11-30T05:06:25.434Z,100456.69
2022-11-30T05:09:28.512Z,100469.16
2022-11-30T05:12:31.808Z,100469.47
2022-11-30T05:15:34.796Z,100473.75
2022-11-30T05:18:38.493Z,100477.69
2022-11-30T05:21:45.608Z,100473.75
2022-11-30T05:24:49.829Z,100472.62
2022-11-30T05:27:52.986Z,100473.28
2022-11-30T05:30:56.465Z,100480.41
2022-11-30T05:33:59.418Z,100481.03
2022-11-30T05:37:03.464Z,100471.56
2022-11-30T05:40:07.167Z,100477.56
2022-11-30T05:43:10.749Z,100471.41
2022-11-30T05:46:13.850Z,100472.00
2022-11-30T05:49:17.330Z,100469.62
2022-11-30T05:52:20.319Z,100478.34
2022-11-30T05:55:24.707Z,100471.22
2022-11-30T05:58:27.701Z,100469.16
2022-11-30T06:01:31.078Z,100459.06
2022-11-30T06:04:35.054Z,100473.47
2022-11-30T06:07:38.188Z,100471.72
2022-11-30T06:10:41.586Z,100470.13
2022-11-30T06:13:44.920Z,100468.88
2022-11-30T06:16:49.741Z,100474.09
2022-11-30T06:19:52.772Z,100484.50
2022-11-30T06:23:01.642Z,100481.34
2022-11-30T06:26:10.370Z,100485.47
2022-11-30T06:29:13.929Z,100487.84
2022-11-30T06:32:20.643Z,100492.28
2022-11-30T06:35:25.583Z,100489.41
2022-11-30T06:38:41.458Z,100490.06
2022-11-30T06:41:44.955Z,100484.69
2022-11-30T06:44:48.987Z,100483.91
2022-11-30T06:47:56.120Z,100488.50
2022-11-30T06:50:59.328Z,100491.19
2022-11-30T06:57:39.461Z,100505.41
2022-11-30T07:00:43.079Z,100508.56
2022-11-30T07:03:47.415Z,100511.91
2022-11-30T07:07:18.922Z,100509.06
2022-11-30T07:10:24.152Z,100504.63
2022-11-30T07:13:30.525Z,100504.47
2022-11-30T07:16:34.478Z,100514.59
2022-11-30T07:20:02.522Z,100521.53
2022-11-30T07:23:34.822Z,100516.66
2022-11-30T07:26:46.454Z,100513.00
2022-11-30T07:29:51.711Z,100511.13
2022-11-30T07:32:55.322Z,100512.97
2022-11-30T07:35:58.455Z,100508.37
2022-11-30T07:39:02.452Z,100518.53
2022-11-30T07:42:08.192Z,100513.31
2022-11-30T07:45:11.635Z,100516.97
2022-11-30T07:52:11.644Z,100510.91
2022-11-30T07:55:15.109Z,100513.00
2022-11-30T07:58:18.269Z,100512.59
2022-11-30T08:01:23.705Z,100520.84
2022-11-30T08:04:27.001Z,100516.75
2022-11-30T08:07:30.113Z,100512.97
2022-11-30T08:10:33.344Z,100510.44
2022-11-30T08:13:36.650Z,100514.87
2022-11-30T08:16:40.071Z,100508.37
2022-11-30T08:19:43.038Z,100517.81
2022-11-30T08:22:46.540Z,100524.13
2022-11-30T08:25:49.396Z,100526.03
2022-11-30T08:28:53.077Z,100519.41
2022-11-30T08:31:56.122Z,100522.59
2022-11-30T08:34:59.379Z,100526.38
2022-11-30T08:38:02.530Z,100526.38
2022-11-30T08:41:06.871Z,100524.28
2022-11-30T08:44:09.797Z,100526.50
2022-11-30T08:47:13.321Z,100513.00
2022-11-30T08:50:16.440Z,100518.87
2022-11-30T08:53:19.637Z,100519.63
2022-11-30T08:56:25.224Z,100519.44
2022-11-30T08:59:31.387Z,100512.81
2022-11-30T09:02:34.405Z,100514.28
2022-11-30T09:05:37.499Z,100510.69
2022-11-30T09:08:41.774Z,100500.47
2022-11-30T09:11:44.837Z,100499.62
2022-11-30T09:14:54.010Z,100498.50
2022-11-30T09:18:00.695Z,100493.12
2022-11-30T09:21:06.439Z,100494.47
2022-11-30T09:24:10.309Z,100489.97
2022-11-30T09:27:13.225Z,100492.44
2022-11-30T09:30:16.534Z,100495.75
2022-11-30T09:33:20.327Z,100503.69
2022-11-30T09:36:27.254Z,100498.88
2022-11-30T09:39:30.313Z,100501.66
2022-11-30T09:42:58.043Z,100502.66
2022-11-30T09:46:04.224Z,100498.44
2022-11-30T09:49:18.978Z,100502.06
2022-11-30T09:52:43.826Z,100500.22
2022-11-30T09:55:49.533Z,100499.69
2022-11-30T09:59:24.964Z,100494.09
2022-11-30T10:02:38.037Z,100500.69
2022-11-30T10:05:58.558Z,100500.84
2022-11-30T10:09:17.292Z,100494.28
2022-11-30T10:12:25.605Z,100499.09
2022-11-30T10:15:34.036Z,100504.13
2022-11-30T10:18:46.191Z,100504.28
2022-11-30T10:22:01.366Z,100496.78
2022-11-30T10:25:43.816Z,100500.34
2022-11-30T10:28:54.553Z,100503.47
2022-11-30T10:31:59.777Z,100500.34
2022-11-30T10:35:15.480Z,100493.50
2022-11-30T10:38:29.193Z,100488.25
2022-11-30T10:41:44.797Z,100491.09
2022-11-30T10:45:20.208Z,100493.03
2022-11-30T10:48:33.953Z,100487.87
2022-11-30T10:51:39.797Z,100480.50
2022-11-30T10:54:42.671Z,100482.62
2022-11-30T10:57:48.768Z,100475.91
2022-11-30T11:01:21.829Z,100477.91
2022-11-30T11:04:27.670Z,100471.72
2022-11-30T11:07:32.003Z,100463.75
2022-11-30T11:10:44.522Z,100463.66
2022-11-30T11:13:47.535Z,100466.28
2022-11-30T11:17:03.540Z,100463.84
2022-11-30T11:20:34.229Z,100453.53
2022-11-30T11:23:40.697Z,100455.00
2022-11-30T11:26:50.628Z,100452.41
2022-11-30T11:30:08.090Z,100450.28
2022-11-30T11:33:13.968Z,100452.34
2022-11-30T11:36:25.755Z,100449.84
2022-11-30T11:39:28.626Z,100449.53
2022-11-30T11:42:38.548Z,100448.59
2022-11-30T11:45:41.398Z,100456.94
2022-11-30T11:49:06.242Z,100448.62
2022-11-30T11:52:09.127Z,100442.19
2022-11-30T11:55:20.333Z,100440.94
2022-11-30T11:58:45.959Z,100442.94
2022-11-30T12:01:49.248Z,100441.16
2022-11-30T12:05:16.227Z,100445.59
2022-11-30T12:08:49.148Z,100447.41
2022-11-30T12:11:52.430Z,100442.91
2022-11-30T12:14:56.526Z,100447.91
2022-11-30T12:18:24.360Z,100450.59
2022-11-30T12:21:36.790Z,100446.44
2022-11-30T12:24:55.489Z,100451.41
2022-11-30T12:28:14.839Z,100448.25
2022-11-30T12:31:18.923Z,100456.41
2022-11-30T12:34:43.390Z,100454.53
2022-11-30T12:38:17.368Z,100464.25
2022-11-30T12:41:39.166Z,100455.56
2022-11-30T12:44:49.485Z,100455.91
2022-11-30T12:48:15.629Z,100458.72
2022-11-30T12:51:30.361Z,100454.00
2022-11-30T12:54:49.257Z,100447.47
2022-11-30T12:58:30.547Z,100431.16
2022-11-30T13:01:33.528Z,100433.28
2022-11-30T13:04:46.136Z,100427.75
2022-11-30T13:07:58.819Z,100424.75
2022-11-30T13:11:07.176Z,100431.38
2022-11-30T13:14:23.666Z,100420.13
2022-11-30T13:17:27.752Z,100417.09
2022-11-30T13:20:41.373Z,100422.97
2022-11-30T13:23:56.668Z,100429.03
2022-11-30T13:27:05.993Z,100427.91
2022-11-30T13:30:26.075Z,100418.56
2022-11-30T13:33:48.271Z,100425.44
2022-11-30T13:36:51.725Z,100418.00
2022-11-30T13:39:57.873Z,100427.56
2022-11-30T13:43:01.031Z,100426.44
2022-11-30T13:46:16.213Z,100422.38
2022-11-30T13:49:25.990Z,100429.81
2022-11-30T13:53:04.436Z,100434.06
2022-11-30T13:56:19.704Z,100423.28
2022-11-30T13:59:25.484Z,100428.66
2022-11-30T14:02:41.655Z,100422.59
2022-11-30T14:05:57.828Z,100422.47
2022-11-30T14:09:00.753Z,100428.88
2022-11-30T14:12:32.746Z,100420.56
2022-11-30T14:15:38.591Z,100425.38
2022-11-30T14:18:45.387Z,100422.91
2022-11-30T14:22:00.339Z,100425.72
2022-11-30T14:29:08.038Z,100432.78
2022-11-30T14:32:25.051Z,100424.91
2022-11-30T14:35:31.619Z,100432.53
2022-11-30T14:38:53.400Z,100422.75
2022-11-30T14:42:58.256Z,100427.13
2022-11-30T14:46:06.537Z,100419.56
2022-11-30T14:49:19.204Z,100423.44
2022-11-30T14:52:46.322Z,100412.22
2022-11-30T14:55:57.070Z,100418.12
2022-11-30T14:59:29.263Z,100414.19
2022-11-30T15:02:38.889Z,100422.16
2022-11-30T15:05:42.489Z,100416.78
2022-11-30T15:08:53.046Z,100419.53
2022-11-30T15:11:58.177Z,100415.88
2022-11-30T15:15:02.772Z,100418.94
2022-11-30T15:18:25.516Z,100420.84
2022-11-30T15:21:34.294Z,100423.44
2022-11-30T15:24:37.928Z,100422.84
2022-11-30T15:27:41.318Z,100416.00
2022-11-30T15:30:46.717Z,100415.66
2022-11-30T15:33:50.575Z,100426.97
2022-11-30T15:36:56.028Z,100425.84
2022-11-30T15:40:01.396Z,100416.31
2022-11-30T15:43:04.773Z,100419.69
2022-11-30T15:46:25.564Z,100419.56
2022-11-30T15:49:33.873Z,100420.34
2022-11-30T15:52:37.221Z,100412.78
2022-11-30T15:55:55.853Z,100426.53
2022-11-30T15:59:02.606Z,100422.72
2022-11-30T16:02:14.345Z,100423.56
2022-11-30T16:05:19.717Z,100415.94
2022-11-30T16:08:23.004Z,100421.69
2022-11-30T16:11:27.202Z,100418.00
2022-11-30T16:14:30.482Z,100411.69
2022-11-30T16:17:34.841Z,100408.22
2022-11-30T16:20:38.820Z,100413.91
2022-11-30T16:23:42.294Z,100424.44
2022-11-30T16:26:52.708Z,100416.84
2022-11-30T16:29:58.486Z,100421.94
2022-11-30T16:33:02.519Z,100423.13
2022-11-30T16:36:16.178Z,100415.34
2022-11-30T16:39:19.286Z,100412.88
2022-11-30T16:42:23.266Z,100413.37
2022-11-30T16:45:27.145Z,100412.12
2022-11-30T16:48:30.988Z,100406.47
2022-11-30T16:51:37.249Z,100418.03
2022-11-30T16:54:41.127Z,100416.16
2022-11-30T16:57:44.850Z,100418.41
2022-11-30T17:00:48.578Z,100422.06
2022-11-30T17:03:53.391Z,100422.38
2022-11-30T17:07:02.275Z,100424.81
2022-11-30T17:10:07.805Z,100421.81
2022-11-30T17:13:16.464Z,100427.09
2022-11-30T17:16:20.507Z,100428.09
2022-11-30T17:19:25.804Z,100433.47
2022-11-30T17:22:29.088Z,100427.75
2022-11-30T17:25:33.364Z,100426.47
2022-11-30T17:28:38.354Z,100430.44
2022-11-30T17:31:41.791Z,100436.03
2022-11-30T17:34:45.391Z,100434.94
2022-11-30T17:37:49.536Z,100426.66
2022-11-30T17:40:52.696Z,100434.75
2022-11-30T17:43:56.750Z,100432.38
2022-11-30T17:47:00.596Z,100435.38
2022-11-30T17:50:05.444Z,100436.97
2022-11-30T17:53:11.209Z,100437.16
2022-11-30T17:56:18.372Z,100438.72
2022-11-30T17:59:22.089Z,100439.22
2022-11-30T18:02:25.973Z,100432.09
2022-11-30T18:05:29.837Z,100438.13
2022-11-30T18:08:33.802Z,100436.87
2022-11-30T18:11:37.907Z,100445.25
2022-11-30T18:14:41.236Z,100445.56
2022-11-30T18:17:45.128Z,100452.56
2022-11-30T18:20:48.576Z,100450.50
2022-11-30T18:23:54.332Z,100449.88
2022-11-30T18:27:08.236Z,100446.84
2022-11-30T18:30:12.405Z,100457.97
2022-11-30T18:33:17.135Z,100446.59
2022-11-30T18:36:21.110Z,100453.25
2022-11-30T18:39:25.916Z,100461.47
2022-11-30T18:42:29.639Z,100453.41
2022-11-30T18:45:34.974Z,100451.81
2022-11-30T18:48:41.747Z,100459.72
2022-11-30T18:51:46.196Z,100455.59
2022-11-30T18:54:50.910Z,100455.47
2022-11-30T18:57:57.682Z,100456.25
2022-11-30T19:01:13.719Z,100459.41
2022-11-30T19:04:17.644Z,100445.97
2022-11-30T19:07:21.914Z,100464.63
2022-11-30T19:10:26.041Z,100446.41
2022-11-30T19:13:31.756Z,100456.72
2022-11-30T19:16:36.280Z,100457.34
2022-11-30T19:19:42.836Z,100460.81
2022-11-30T19:22:47.712Z,100455.75
2022-11-30T19:25:56.000Z,100460.50
2022-11-30T19:29:02.675Z,100458.44
2022-11-30T19:32:07.764Z,100464.16
2022-11-30T19:35:11.642Z,100460.34
2022-11-30T19:38:16.968Z,100460.50
2022-11-30T19:41:22.089Z,100460.66
2022-11-30T19:44:26.142Z,100463.03
2022-11-30T19:47:30.291Z,100465.22
2022-11-30T19:50:37.646Z,100466.34
2022-11-30T19:53:43.511Z,100455.75
2022-11-30T19:56:49.052Z,100461.47
2022-11-30T19:59:55.605Z,100454.34
2022-11-30T20:03:10.797Z,100460.97
2022-11-30T20:06:14.876Z,100456.06
2022-11-30T20:09:18.493Z,100458.56
2022-11-30T20:12:23.635Z,100457.34
2022-11-30T20:15:28.853Z,100457.63
2022-11-30T20:18:32.820Z,100458.91
2022-11-30T20:21:37.152Z,100462.72
2022-11-30T20:24:47.210Z,100469.66
2022-11-30T20:27:53.988Z,100469.03
2022-11-30T20:31:03.053Z,100473.78
2022-11-30T20:34:08.780Z,100474.09
2022-11-30T20:37:13.017Z,100465.84
2022-11-30T20:40:16.760Z,100475.19
2022-11-30T20:43:21.350Z,100472.50
2022-11-30T20:46:28.696Z,100474.25
2022-11-30T20:49:32.516Z,100468.38
2022-11-30T20:52:36.449Z,100468.22
2022-11-30T20:55:40.511Z,100463.94
2022-11-30T20:58:43.934Z,100454.16
2022-11-30T21:01:47.996Z,100460.94
2022-11-30T21:04:51.908Z,100450.69
2022-11-30T21:07:56.111Z,100454.47
2022-11-30T21:11:08.294Z,100450.84
2022-11-30T21:14:12.261Z,100448.47
2022-11-30T21:17:16.053Z,100448.81
2022-11-30T21:20:19.704Z,100450.22
2022-11-30T21:23:25.084Z,100445.00
2022-11-30T21:26:30.904Z,100454.66
2022-11-30T21:29:33.906Z,100450.87
2022-11-30T21:32:37.415Z,100463.94
2022-11-30T21:35:41.912Z,100463.34
2022-11-30T21:38:45.623Z,100459.53
2022-11-30T21:41:49.596Z,100464.13
2022-11-30T21:44:54.641Z,100457.13
2022-11-30T21:47:57.979Z,100470.41
2022-11-30T21:51:05.103Z,100473.88
2022-11-30T21:54:11.196Z,100467.72
2022-11-30T21:57:15.063Z,100462.19
2022-11-30T22:00:19.089Z,100462.34
2022-11-30T22:03:22.644Z,100462.66
2022-11-30T22:06:26.905Z,100470.22
2022-11-30T22:09:33.081Z,100474.00
2022-11-30T22:12:36.010Z,100465.94
2022-11-30T22:15:39.293Z,100469.59
2022-11-30T22:18:43.352Z,100458.97
2022-11-30T22:21:50.268Z,100461.66
2022-11-30T22:24:55.899Z,100458.50
2022-11-30T22:28:00.014Z,100465.47
2022-11-30T22:31:08.242Z,100461.72
2022-11-30T22:34:12.075Z,100460.94
2022-11-30T22:37:15.468Z,100469.38
2022-11-30T22:40:19.323Z,100466.25
2022-11-30T22:43:22.539Z,100473.72
2022-11-30T22:46:31.609Z,100477.84
2022-11-30T22:49:34.745Z,100483.09
2022-11-30T22:53:02.096Z,100482.84
2022-11-30T22:56:06.635Z,100480.44
2022-11-30T22:59:13.921Z,100474.28
2022-11-30T23:02:17.176Z,100481.56
2022-11-30T23:05:21.891Z,100471.63
2022-11-30T23:08:26.306Z,100476.44
2022-11-30T23:11:30.705Z,100473.16
2022-11-30T23:14:33.765Z,100467.50
2022-11-30T23:17:37.875Z,100469.56
2022-11-30T23:20:40.920Z,100472.34
2022-11-30T23:23:45.578Z,100467.31
2022-11-30T23:26:49.016Z,100466.88
2022-11-30T23:29:52.462Z,100458.53
2022-11-30T23:32:57.022Z,100456.19
2022-11-30T23:36:00.507Z,100452.56
2022-11-30T23:39:07.054Z,100448.16
2022-11-30T23:42:10.680Z,100447.25
2022-11-30T23:45:14.137Z,100444.56
2022-11-30T23:48:17.826Z,100443.59
2022-11-30T23:51:21.285Z,100436.34
2022-11-30T23:54:24.784Z,100448.19
2022-11-30T23:57:28.082Z,100440.41
